sensor_id;sensor_type;location;lat;lon;timestamp;P1;durP1;ratioP1;P2;durP2;ratioP2
18752;SDS011;9505;50.882;5.350;2023-04-24T00:02:04;29.02;;;8.23;;
18752;SDS011;9505;50.882;5.350;2023-04-24T00:04:31;34.30;;;8.70;;
18752;SDS011;9505;50.882;5.350;2023-04-24T00:06:57;28.13;;;8.30;;
18752;SDS011;9505;50.882;5.350;2023-04-24T00:09:25;31.25;;;7.88;;
18752;SDS011;9505;50.882;5.350;2023-04-24T00:11:51;26.00;;;8.48;;
18752;SDS011;9505;50.882;5.350;2023-04-24T00:14:18;27.33;;;7.72;;
18752;SDS011;9505;50.882;5.350;2023-04-24T00:16:44;29.55;;;8.30;;
18752;SDS011;9505;50.882;5.350;2023-04-24T00:19:09;31.40;;;8.48;;
18752;SDS011;9505;50.882;5.350;2023-04-24T00:21:36;31.30;;;9.13;;
18752;SDS011;9505;50.882;5.350;2023-04-24T00:24:02;27.13;;;8.57;;
18752;SDS011;9505;50.882;5.350;2023-04-24T00:26:28;26.52;;;8.95;;
18752;SDS011;9505;50.882;5.350;2023-04-24T00:28:54;38.00;;;10.10;;
18752;SDS011;9505;50.882;5.350;2023-04-24T00:31:20;37.47;;;9.23;;
18752;SDS011;9505;50.882;5.350;2023-04-24T00:33:45;34.15;;;9.48;;
18752;SDS011;9505;50.882;5.350;2023-04-24T00:36:11;27.27;;;8.98;;
18752;SDS011;9505;50.882;5.350;2023-04-24T00:38:37;26.38;;;10.65;;
18752;SDS011;9505;50.882;5.350;2023-04-24T00:41:02;31.50;;;10.27;;
18752;SDS011;9505;50.882;5.350;2023-04-24T00:43:28;23.95;;;9.40;;
18752;SDS011;9505;50.882;5.350;2023-04-24T00:45:54;33.92;;;10.35;;
18752;SDS011;9505;50.882;5.350;2023-04-24T00:48:20;32.38;;;10.15;;
18752;SDS011;9505;50.882;5.350;2023-04-24T00:50:46;36.10;;;11.18;;
18752;SDS011;9505;50.882;5.350;2023-04-24T00:53:11;32.15;;;10.88;;
18752;SDS011;9505;50.882;5.350;2023-04-24T00:55:37;23.10;;;8.93;;
18752;SDS011;9505;50.882;5.350;2023-04-24T00:58:03;33.13;;;10.50;;
18752;SDS011;9505;50.882;5.350;2023-04-24T01:00:29;34.80;;;10.57;;
18752;SDS011;9505;50.882;5.350;2023-04-24T01:02:55;32.40;;;9.90;;
18752;SDS011;9505;50.882;5.350;2023-04-24T01:05:24;33.72;;;9.88;;
18752;SDS011;9505;50.882;5.350;2023-04-24T01:07:49;31.48;;;10.55;;
18752;SDS011;9505;50.882;5.350;2023-04-24T01:10:16;33.30;;;9.40;;
18752;SDS011;9505;50.882;5.350;2023-04-24T01:12:42;31.80;;;10.05;;
18752;SDS011;9505;50.882;5.350;2023-04-24T01:15:08;31.83;;;10.40;;
18752;SDS011;9505;50.882;5.350;2023-04-24T01:17:35;35.17;;;10.57;;
18752;SDS011;9505;50.882;5.350;2023-04-24T01:20:00;42.67;;;11.73;;
18752;SDS011;9505;50.882;5.350;2023-04-24T01:22:29;40.35;;;10.75;;
18752;SDS011;9505;50.882;5.350;2023-04-24T01:24:54;36.83;;;11.70;;
18752;SDS011;9505;50.882;5.350;2023-04-24T01:27:20;36.38;;;10.52;;
18752;SDS011;9505;50.882;5.350;2023-04-24T01:29:46;35.40;;;9.98;;
18752;SDS011;9505;50.882;5.350;2023-04-24T01:32:14;35.47;;;10.75;;
18752;SDS011;9505;50.882;5.350;2023-04-24T01:34:40;33.40;;;10.95;;
18752;SDS011;9505;50.882;5.350;2023-04-24T01:37:06;36.45;;;10.45;;
18752;SDS011;9505;50.882;5.350;2023-04-24T01:39:31;38.13;;;10.80;;
18752;SDS011;9505;50.882;5.350;2023-04-24T01:41:58;31.80;;;9.75;;
18752;SDS011;9505;50.882;5.350;2023-04-24T01:44:25;31.55;;;9.63;;
18752;SDS011;9505;50.882;5.350;2023-04-24T01:46:52;32.40;;;11.10;;
18752;SDS011;9505;50.882;5.350;2023-04-24T01:49:19;33.22;;;10.85;;
18752;SDS011;9505;50.882;5.350;2023-04-24T01:51:45;28.08;;;9.95;;
18752;SDS011;9505;50.882;5.350;2023-04-24T01:54:11;35.95;;;10.75;;
18752;SDS011;9505;50.882;5.350;2023-04-24T01:56:37;39.75;;;10.75;;
18752;SDS011;9505;50.882;5.350;2023-04-24T01:59:09;28.92;;;11.18;;
18752;SDS011;9505;50.882;5.350;2023-04-24T02:01:38;36.83;;;9.85;;
18752;SDS011;9505;50.882;5.350;2023-04-24T02:04:04;34.55;;;11.43;;
18752;SDS011;9505;50.882;5.350;2023-04-24T02:06:31;38.95;;;11.35;;
18752;SDS011;9505;50.882;5.350;2023-04-24T02:08:59;28.10;;;11.02;;
18752;SDS011;9505;50.882;5.350;2023-04-24T02:11:26;37.00;;;11.20;;
18752;SDS011;9505;50.882;5.350;2023-04-24T02:13:52;36.33;;;11.35;;
18752;SDS011;9505;50.882;5.350;2023-04-24T02:16:18;38.85;;;11.50;;
18752;SDS011;9505;50.882;5.350;2023-04-24T02:18:44;33.95;;;11.23;;
18752;SDS011;9505;50.882;5.350;2023-04-24T02:21:10;39.00;;;11.85;;
18752;SDS011;9505;50.882;5.350;2023-04-24T02:23:35;38.15;;;11.82;;
18752;SDS011;9505;50.882;5.350;2023-04-24T02:26:01;32.20;;;11.10;;
18752;SDS011;9505;50.882;5.350;2023-04-24T02:28:27;41.95;;;12.05;;
18752;SDS011;9505;50.882;5.350;2023-04-24T02:30:53;37.50;;;10.95;;
18752;SDS011;9505;50.882;5.350;2023-04-24T02:33:18;33.35;;;10.75;;
18752;SDS011;9505;50.882;5.350;2023-04-24T02:35:44;36.60;;;11.00;;
18752;SDS011;9505;50.882;5.350;2023-04-24T02:38:10;37.47;;;11.05;;
18752;SDS011;9505;50.882;5.350;2023-04-24T02:40:36;40.63;;;11.18;;
18752;SDS011;9505;50.882;5.350;2023-04-24T02:43:01;34.42;;;10.65;;
18752;SDS011;9505;50.882;5.350;2023-04-24T02:45:27;28.33;;;10.77;;
18752;SDS011;9505;50.882;5.350;2023-04-24T02:47:53;35.78;;;11.65;;
18752;SDS011;9505;50.882;5.350;2023-04-24T02:50:18;35.60;;;10.82;;
18752;SDS011;9505;50.882;5.350;2023-04-24T02:52:44;32.28;;;10.40;;
18752;SDS011;9505;50.882;5.350;2023-04-24T02:55:10;32.65;;;10.30;;
18752;SDS011;9505;50.882;5.350;2023-04-24T02:57:35;35.10;;;11.73;;
18752;SDS011;9505;50.882;5.350;2023-04-24T03:00:01;34.13;;;10.57;;
18752;SDS011;9505;50.882;5.350;2023-04-24T03:02:28;29.88;;;9.65;;
18752;SDS011;9505;50.882;5.350;2023-04-24T03:04:53;34.08;;;11.82;;
18752;SDS011;9505;50.882;5.350;2023-04-24T03:07:20;32.45;;;11.48;;
18752;SDS011;9505;50.882;5.350;2023-04-24T03:09:45;42.10;;;11.30;;
18752;SDS011;9505;50.882;5.350;2023-04-24T03:12:12;40.17;;;12.93;;
18752;SDS011;9505;50.882;5.350;2023-04-24T03:14:38;36.75;;;12.40;;
18752;SDS011;9505;50.882;5.350;2023-04-24T03:17:03;39.00;;;12.27;;
18752;SDS011;9505;50.882;5.350;2023-04-24T03:19:29;40.38;;;12.65;;
18752;SDS011;9505;50.882;5.350;2023-04-24T03:21:55;39.67;;;12.25;;
18752;SDS011;9505;50.882;5.350;2023-04-24T03:24:20;31.40;;;12.20;;
18752;SDS011;9505;50.882;5.350;2023-04-24T03:26:47;36.92;;;11.55;;
18752;SDS011;9505;50.882;5.350;2023-04-24T03:29:13;35.97;;;12.93;;
18752;SDS011;9505;50.882;5.350;2023-04-24T03:31:38;29.88;;;11.98;;
18752;SDS011;9505;50.882;5.350;2023-04-24T03:34:04;39.30;;;12.38;;
18752;SDS011;9505;50.882;5.350;2023-04-24T03:36:30;37.97;;;12.13;;
18752;SDS011;9505;50.882;5.350;2023-04-24T03:38:56;29.55;;;10.43;;
18752;SDS011;9505;50.882;5.350;2023-04-24T03:41:21;40.83;;;11.77;;
18752;SDS011;9505;50.882;5.350;2023-04-24T03:43:47;39.17;;;11.52;;
18752;SDS011;9505;50.882;5.350;2023-04-24T03:46:13;42.17;;;11.75;;
18752;SDS011;9505;50.882;5.350;2023-04-24T03:48:39;33.65;;;11.93;;
18752;SDS011;9505;50.882;5.350;2023-04-24T03:51:04;34.75;;;11.45;;
18752;SDS011;9505;50.882;5.350;2023-04-24T03:53:30;35.65;;;11.30;;
18752;SDS011;9505;50.882;5.350;2023-04-24T03:55:55;30.35;;;10.98;;
18752;SDS011;9505;50.882;5.350;2023-04-24T03:58:21;32.83;;;10.27;;
18752;SDS011;9505;50.882;5.350;2023-04-24T04:00:47;31.83;;;10.90;;
18752;SDS011;9505;50.882;5.350;2023-04-24T04:03:13;32.03;;;10.88;;
18752;SDS011;9505;50.882;5.350;2023-04-24T04:05:39;28.33;;;11.18;;
18752;SDS011;9505;50.882;5.350;2023-04-24T04:08:05;30.02;;;9.63;;
18752;SDS011;9505;50.882;5.350;2023-04-24T04:10:31;33.80;;;10.07;;
18752;SDS011;9505;50.882;5.350;2023-04-24T04:12:56;36.53;;;11.07;;
18752;SDS011;9505;50.882;5.350;2023-04-24T04:15:22;30.08;;;9.50;;
18752;SDS011;9505;50.882;5.350;2023-04-24T04:17:48;30.25;;;10.25;;
18752;SDS011;9505;50.882;5.350;2023-04-24T04:20:13;30.20;;;10.23;;
18752;SDS011;9505;50.882;5.350;2023-04-24T04:22:39;32.00;;;10.43;;
18752;SDS011;9505;50.882;5.350;2023-04-24T04:25:05;30.17;;;9.55;;
18752;SDS011;9505;50.882;5.350;2023-04-24T04:27:31;31.50;;;10.43;;
18752;SDS011;9505;50.882;5.350;2023-04-24T04:30:00;26.38;;;9.98;;
18752;SDS011;9505;50.882;5.350;2023-04-24T04:32:29;30.55;;;10.25;;
18752;SDS011;9505;50.882;5.350;2023-04-24T04:34:58;37.03;;;11.05;;
18752;SDS011;9505;50.882;5.350;2023-04-24T04:37:31;32.08;;;10.45;;
18752;SDS011;9505;50.882;5.350;2023-04-24T04:39:58;28.75;;;10.75;;
18752;SDS011;9505;50.882;5.350;2023-04-24T04:42:25;33.85;;;9.70;;
18752;SDS011;9505;50.882;5.350;2023-04-24T04:44:52;30.00;;;9.65;;
18752;SDS011;9505;50.882;5.350;2023-04-24T04:47:18;33.35;;;10.50;;
18752;SDS011;9505;50.882;5.350;2023-04-24T04:49:48;28.17;;;9.48;;
18752;SDS011;9505;50.882;5.350;2023-04-24T04:52:14;41.08;;;11.75;;
18752;SDS011;9505;50.882;5.350;2023-04-24T04:54:39;35.60;;;10.65;;
18752;SDS011;9505;50.882;5.350;2023-04-24T04:57:05;31.13;;;9.43;;
18752;SDS011;9505;50.882;5.350;2023-04-24T04:59:31;30.73;;;9.80;;
18752;SDS011;9505;50.882;5.350;2023-04-24T05:01:57;29.15;;;9.45;;
18752;SDS011;9505;50.882;5.350;2023-04-24T05:04:22;35.80;;;9.48;;
18752;SDS011;9505;50.882;5.350;2023-04-24T05:06:48;25.15;;;9.07;;
18752;SDS011;9505;50.882;5.350;2023-04-24T05:09:16;29.42;;;9.85;;
18752;SDS011;9505;50.882;5.350;2023-04-24T05:11:41;34.88;;;9.65;;
18752;SDS011;9505;50.882;5.350;2023-04-24T05:14:07;25.52;;;8.05;;
18752;SDS011;9505;50.882;5.350;2023-04-24T05:16:33;30.17;;;9.32;;
18752;SDS011;9505;50.882;5.350;2023-04-24T05:18:58;25.50;;;8.40;;
18752;SDS011;9505;50.882;5.350;2023-04-24T05:21:24;29.65;;;8.48;;
18752;SDS011;9505;50.882;5.350;2023-04-24T05:23:50;20.13;;;8.05;;
18752;SDS011;9505;50.882;5.350;2023-04-24T05:26:15;28.15;;;8.95;;
18752;SDS011;9505;50.882;5.350;2023-04-24T05:28:42;24.90;;;8.32;;
18752;SDS011;9505;50.882;5.350;2023-04-24T05:31:08;28.40;;;8.77;;
18752;SDS011;9505;50.882;5.350;2023-04-24T05:33:34;29.85;;;8.73;;
18752;SDS011;9505;50.882;5.350;2023-04-24T05:36:00;32.60;;;9.13;;
18752;SDS011;9505;50.882;5.350;2023-04-24T05:38:25;22.55;;;8.00;;
18752;SDS011;9505;50.882;5.350;2023-04-24T05:40:51;24.60;;;7.90;;
18752;SDS011;9505;50.882;5.350;2023-04-24T05:43:17;30.67;;;8.45;;
18752;SDS011;9505;50.882;5.350;2023-04-24T05:45:42;25.33;;;7.25;;
18752;SDS011;9505;50.882;5.350;2023-04-24T05:48:08;20.35;;;6.07;;
18752;SDS011;9505;50.882;5.350;2023-04-24T05:50:34;34.72;;;7.10;;
18752;SDS011;9505;50.882;5.350;2023-04-24T05:52:59;27.95;;;6.90;;
18752;SDS011;9505;50.882;5.350;2023-04-24T05:55:26;30.83;;;6.82;;
18752;SDS011;9505;50.882;5.350;2023-04-24T05:57:52;28.05;;;6.68;;
18752;SDS011;9505;50.882;5.350;2023-04-24T06:00:18;21.77;;;6.05;;
18752;SDS011;9505;50.882;5.350;2023-04-24T06:02:45;30.58;;;7.13;;
18752;SDS011;9505;50.882;5.350;2023-04-24T06:05:11;156.07;;;18.98;;
18752;SDS011;9505;50.882;5.350;2023-04-24T06:07:37;29.00;;;6.65;;
18752;SDS011;9505;50.882;5.350;2023-04-24T06:10:02;137.30;;;16.67;;
18752;SDS011;9505;50.882;5.350;2023-04-24T06:12:28;171.68;;;20.42;;
18752;SDS011;9505;50.882;5.350;2023-04-24T06:14:54;44.58;;;8.27;;
18752;SDS011;9505;50.882;5.350;2023-04-24T06:17:20;68.57;;;10.63;;
18752;SDS011;9505;50.882;5.350;2023-04-24T06:19:46;27.35;;;7.07;;
18752;SDS011;9505;50.882;5.350;2023-04-24T06:22:12;43.67;;;9.18;;
18752;SDS011;9505;50.882;5.350;2023-04-24T06:24:39;32.15;;;7.60;;
18752;SDS011;9505;50.882;5.350;2023-04-24T06:27:05;23.70;;;7.57;;
18752;SDS011;9505;50.882;5.350;2023-04-24T06:29:30;44.72;;;9.27;;
18752;SDS011;9505;50.882;5.350;2023-04-24T06:31:57;34.63;;;9.15;;
18752;SDS011;9505;50.882;5.350;2023-04-24T06:34:23;33.53;;;9.25;;
18752;SDS011;9505;50.882;5.350;2023-04-24T06:36:49;36.72;;;10.32;;
18752;SDS011;9505;50.882;5.350;2023-04-24T06:39:14;35.70;;;7.70;;
18752;SDS011;9505;50.882;5.350;2023-04-24T06:41:40;34.45;;;9.15;;
18752;SDS011;9505;50.882;5.350;2023-04-24T06:44:05;27.88;;;9.15;;
18752;SDS011;9505;50.882;5.350;2023-04-24T06:46:31;29.48;;;9.02;;
18752;SDS011;9505;50.882;5.350;2023-04-24T06:48:57;39.95;;;10.70;;
18752;SDS011;9505;50.882;5.350;2023-04-24T06:51:23;21.85;;;7.97;;
18752;SDS011;9505;50.882;5.350;2023-04-24T06:53:49;34.45;;;9.73;;
18752;SDS011;9505;50.882;5.350;2023-04-24T06:56:16;46.20;;;10.70;;
18752;SDS011;9505;50.882;5.350;2023-04-24T06:58:42;44.33;;;10.88;;
18752;SDS011;9505;50.882;5.350;2023-04-24T07:01:07;42.17;;;10.15;;
18752;SDS011;9505;50.882;5.350;2023-04-24T07:03:34;46.80;;;10.35;;
18752;SDS011;9505;50.882;5.350;2023-04-24T07:06:00;41.55;;;10.88;;
18752;SDS011;9505;50.882;5.350;2023-04-24T07:08:25;42.22;;;11.30;;
18752;SDS011;9505;50.882;5.350;2023-04-24T07:10:51;43.78;;;11.82;;
18752;SDS011;9505;50.882;5.350;2023-04-24T07:13:17;42.35;;;11.52;;
18752;SDS011;9505;50.882;5.350;2023-04-24T07:15:43;38.80;;;10.90;;
18752;SDS011;9505;50.882;5.350;2023-04-24T07:18:08;42.45;;;11.18;;
18752;SDS011;9505;50.882;5.350;2023-04-24T07:20:34;37.83;;;11.75;;
18752;SDS011;9505;50.882;5.350;2023-04-24T07:23:00;43.00;;;12.30;;
18752;SDS011;9505;50.882;5.350;2023-04-24T07:25:26;40.08;;;11.55;;
18752;SDS011;9505;50.882;5.350;2023-04-24T07:27:51;44.10;;;12.15;;
18752;SDS011;9505;50.882;5.350;2023-04-24T07:30:17;58.25;;;12.60;;
18752;SDS011;9505;50.882;5.350;2023-04-24T07:32:43;39.70;;;11.68;;
18752;SDS011;9505;50.882;5.350;2023-04-24T07:35:09;48.30;;;12.60;;
18752;SDS011;9505;50.882;5.350;2023-04-24T07:37:35;63.38;;;13.93;;
18752;SDS011;9505;50.882;5.350;2023-04-24T07:40:01;32.40;;;9.75;;
18752;SDS011;9505;50.882;5.350;2023-04-24T07:42:27;42.05;;;11.88;;
18752;SDS011;9505;50.882;5.350;2023-04-24T07:44:55;37.88;;;11.27;;
18752;SDS011;9505;50.882;5.350;2023-04-24T07:47:21;44.03;;;12.60;;
18752;SDS011;9505;50.882;5.350;2023-04-24T07:49:47;37.03;;;11.93;;
18752;SDS011;9505;50.882;5.350;2023-04-24T07:52:12;43.60;;;13.48;;
18752;SDS011;9505;50.882;5.350;2023-04-24T07:54:38;50.65;;;13.32;;
18752;SDS011;9505;50.882;5.350;2023-04-24T07:57:03;50.88;;;14.77;;
18752;SDS011;9505;50.882;5.350;2023-04-24T07:59:31;42.72;;;13.10;;
18752;SDS011;9505;50.882;5.350;2023-04-24T08:01:56;52.03;;;13.88;;
18752;SDS011;9505;50.882;5.350;2023-04-24T08:04:22;45.15;;;13.73;;
18752;SDS011;9505;50.882;5.350;2023-04-24T08:06:48;51.67;;;14.70;;
18752;SDS011;9505;50.882;5.350;2023-04-24T08:09:14;47.97;;;13.82;;
18752;SDS011;9505;50.882;5.350;2023-04-24T08:11:39;49.50;;;14.20;;
18752;SDS011;9505;50.882;5.350;2023-04-24T08:14:05;46.40;;;14.50;;
18752;SDS011;9505;50.882;5.350;2023-04-24T08:16:32;50.50;;;14.02;;
18752;SDS011;9505;50.882;5.350;2023-04-24T08:18:58;48.85;;;13.20;;
18752;SDS011;9505;50.882;5.350;2023-04-24T08:21:23;57.78;;;13.63;;
18752;SDS011;9505;50.882;5.350;2023-04-24T08:23:51;76.10;;;14.48;;
18752;SDS011;9505;50.882;5.350;2023-04-24T08:26:16;50.17;;;11.30;;
18752;SDS011;9505;50.882;5.350;2023-04-24T08:28:42;40.22;;;11.30;;
18752;SDS011;9505;50.882;5.350;2023-04-24T08:31:08;39.95;;;11.50;;
18752;SDS011;9505;50.882;5.350;2023-04-24T08:33:34;41.15;;;11.48;;
18752;SDS011;9505;50.882;5.350;2023-04-24T08:36:01;57.92;;;11.98;;
18752;SDS011;9505;50.882;5.350;2023-04-24T08:38:27;40.35;;;10.82;;
18752;SDS011;9505;50.882;5.350;2023-04-24T08:40:53;45.83;;;10.07;;
18752;SDS011;9505;50.882;5.350;2023-04-24T08:43:20;59.75;;;10.05;;
18752;SDS011;9505;50.882;5.350;2023-04-24T08:45:47;52.38;;;10.50;;
18752;SDS011;9505;50.882;5.350;2023-04-24T08:48:12;32.03;;;8.55;;
18752;SDS011;9505;50.882;5.350;2023-04-24T08:50:39;37.33;;;8.07;;
18752;SDS011;9505;50.882;5.350;2023-04-24T08:53:08;39.22;;;8.23;;
18752;SDS011;9505;50.882;5.350;2023-04-24T08:55:34;40.58;;;7.90;;
18752;SDS011;9505;50.882;5.350;2023-04-24T08:58:00;37.65;;;8.10;;
18752;SDS011;9505;50.882;5.350;2023-04-24T09:00:27;38.63;;;7.20;;
18752;SDS011;9505;50.882;5.350;2023-04-24T09:02:53;46.17;;;7.95;;
18752;SDS011;9505;50.882;5.350;2023-04-24T09:05:19;28.77;;;6.43;;
18752;SDS011;9505;50.882;5.350;2023-04-24T09:07:49;32.10;;;6.30;;
18752;SDS011;9505;50.882;5.350;2023-04-24T09:10:21;41.35;;;7.10;;
18752;SDS011;9505;50.882;5.350;2023-04-24T09:12:49;32.47;;;6.57;;
18752;SDS011;9505;50.882;5.350;2023-04-24T09:15:16;27.88;;;5.07;;
18752;SDS011;9505;50.882;5.350;2023-04-24T09:17:43;24.67;;;5.75;;
18752;SDS011;9505;50.882;5.350;2023-04-24T09:20:09;28.13;;;5.15;;
18752;SDS011;9505;50.882;5.350;2023-04-24T09:22:36;27.48;;;6.45;;
18752;SDS011;9505;50.882;5.350;2023-04-24T09:25:05;24.73;;;5.68;;
18752;SDS011;9505;50.882;5.350;2023-04-24T09:27:34;25.75;;;5.55;;
18752;SDS011;9505;50.882;5.350;2023-04-24T09:30:00;36.15;;;6.97;;
18752;SDS011;9505;50.882;5.350;2023-04-24T09:32:26;39.08;;;7.88;;
18752;SDS011;9505;50.882;5.350;2023-04-24T09:37:39;26.48;;;6.35;;
18752;SDS011;9505;50.882;5.350;2023-04-24T09:40:17;38.80;;;7.60;;
18752;SDS011;9505;50.882;5.350;2023-04-24T09:42:44;41.35;;;7.65;;
18752;SDS011;9505;50.882;5.350;2023-04-24T09:45:29;34.80;;;7.00;;
18752;SDS011;9505;50.882;5.350;2023-04-24T09:48:00;29.95;;;6.90;;
18752;SDS011;9505;50.882;5.350;2023-04-24T09:50:26;27.15;;;6.55;;
18752;SDS011;9505;50.882;5.350;2023-04-24T09:52:56;21.58;;;6.05;;
18752;SDS011;9505;50.882;5.350;2023-04-24T09:55:23;31.95;;;6.63;;
18752;SDS011;9505;50.882;5.350;2023-04-24T10:00:19;17.85;;;5.40;;
18752;SDS011;9505;50.882;5.350;2023-04-24T10:02:55;27.50;;;5.70;;
18752;SDS011;9505;50.882;5.350;2023-04-24T10:05:27;33.28;;;6.70;;
18752;SDS011;9505;50.882;5.350;2023-04-24T10:07:58;40.05;;;6.72;;
18752;SDS011;9505;50.882;5.350;2023-04-24T10:10:30;27.95;;;6.32;;
18752;SDS011;9505;50.882;5.350;2023-04-24T10:12:57;43.20;;;7.13;;
18752;SDS011;9505;50.882;5.350;2023-04-24T10:15:22;25.27;;;6.03;;
18752;SDS011;9505;50.882;5.350;2023-04-24T10:17:50;22.45;;;6.03;;
18752;SDS011;9505;50.882;5.350;2023-04-24T10:20:23;26.98;;;6.35;;
18752;SDS011;9505;50.882;5.350;2023-04-24T10:22:51;34.95;;;6.07;;
18752;SDS011;9505;50.882;5.350;2023-04-24T10:25:22;24.70;;;5.72;;
18752;SDS011;9505;50.882;5.350;2023-04-24T10:27:49;26.55;;;5.88;;
18752;SDS011;9505;50.882;5.350;2023-04-24T10:30:16;24.85;;;5.00;;
18752;SDS011;9505;50.882;5.350;2023-04-24T10:32:43;28.52;;;4.93;;
18752;SDS011;9505;50.882;5.350;2023-04-24T10:35:10;20.27;;;4.88;;
18752;SDS011;9505;50.882;5.350;2023-04-24T10:37:38;27.27;;;4.30;;
18752;SDS011;9505;50.882;5.350;2023-04-24T10:40:07;20.48;;;4.88;;
18752;SDS011;9505;50.882;5.350;2023-04-24T10:42:35;19.08;;;4.43;;
18752;SDS011;9505;50.882;5.350;2023-04-24T10:45:05;18.02;;;4.40;;
18752;SDS011;9505;50.882;5.350;2023-04-24T10:47:39;15.23;;;3.95;;
18752;SDS011;9505;50.882;5.350;2023-04-24T10:50:12;19.67;;;4.57;;
18752;SDS011;9505;50.882;5.350;2023-04-24T10:52:44;21.05;;;4.60;;
18752;SDS011;9505;50.882;5.350;2023-04-24T10:55:12;19.30;;;5.38;;
18752;SDS011;9505;50.882;5.350;2023-04-24T10:57:39;25.77;;;5.75;;
18752;SDS011;9505;50.882;5.350;2023-04-24T11:00:29;28.05;;;5.20;;
18752;SDS011;9505;50.882;5.350;2023-04-24T11:02:54;25.48;;;5.22;;
18752;SDS011;9505;50.882;5.350;2023-04-24T11:05:21;18.08;;;4.50;;
18752;SDS011;9505;50.882;5.350;2023-04-24T11:10:40;16.40;;;3.95;;
18752;SDS011;9505;50.882;5.350;2023-04-24T11:13:08;27.00;;;4.72;;
18752;SDS011;9505;50.882;5.350;2023-04-24T11:15:34;23.65;;;4.43;;
18752;SDS011;9505;50.882;5.350;2023-04-24T11:18:00;20.23;;;4.75;;
18752;SDS011;9505;50.882;5.350;2023-04-24T11:20:25;19.00;;;3.63;;
18752;SDS011;9505;50.882;5.350;2023-04-24T11:22:54;24.73;;;4.13;;
18752;SDS011;9505;50.882;5.350;2023-04-24T11:25:20;24.50;;;4.50;;
18752;SDS011;9505;50.882;5.350;2023-04-24T11:27:47;12.65;;;3.30;;
18752;SDS011;9505;50.882;5.350;2023-04-24T11:30:18;17.95;;;3.63;;
18752;SDS011;9505;50.882;5.350;2023-04-24T11:32:47;20.42;;;3.50;;
18752;SDS011;9505;50.882;5.350;2023-04-24T11:35:16;15.00;;;3.97;;
18752;SDS011;9505;50.882;5.350;2023-04-24T11:37:49;19.15;;;4.20;;
18752;SDS011;9505;50.882;5.350;2023-04-24T11:40:17;26.50;;;4.50;;
18752;SDS011;9505;50.882;5.350;2023-04-24T11:42:45;22.08;;;3.88;;
18752;SDS011;9505;50.882;5.350;2023-04-24T11:45:16;21.85;;;3.92;;
18752;SDS011;9505;50.882;5.350;2023-04-24T11:47:43;16.80;;;3.67;;
18752;SDS011;9505;50.882;5.350;2023-04-24T11:50:13;30.60;;;3.95;;
18752;SDS011;9505;50.882;5.350;2023-04-24T11:52:41;21.77;;;4.28;;
18752;SDS011;9505;50.882;5.350;2023-04-24T11:57:54;19.60;;;4.05;;
18752;SDS011;9505;50.882;5.350;2023-04-24T12:00:23;17.17;;;3.67;;
18752;SDS011;9505;50.882;5.350;2023-04-24T12:03:03;20.38;;;3.85;;
18752;SDS011;9505;50.882;5.350;2023-04-24T12:05:30;25.52;;;4.20;;
18752;SDS011;9505;50.882;5.350;2023-04-24T12:07:56;15.30;;;3.30;;
18752;SDS011;9505;50.882;5.350;2023-04-24T12:10:22;18.77;;;3.97;;
18752;SDS011;9505;50.882;5.350;2023-04-24T12:12:49;25.42;;;4.10;;
18752;SDS011;9505;50.882;5.350;2023-04-24T12:15:16;18.63;;;3.83;;
18752;SDS011;9505;50.882;5.350;2023-04-24T12:17:44;16.58;;;3.90;;
18752;SDS011;9505;50.882;5.350;2023-04-24T12:20:10;24.05;;;4.35;;
18752;SDS011;9505;50.882;5.350;2023-04-24T12:25:20;23.25;;;3.83;;
18752;SDS011;9505;50.882;5.350;2023-04-24T12:27:52;35.67;;;5.43;;
18752;SDS011;9505;50.882;5.350;2023-04-24T12:30:33;31.40;;;4.97;;
18752;SDS011;9505;50.882;5.350;2023-04-24T12:33:02;24.55;;;4.47;;
18752;SDS011;9505;50.882;5.350;2023-04-24T12:35:29;20.15;;;3.88;;
18752;SDS011;9505;50.882;5.350;2023-04-24T12:38:11;27.08;;;4.55;;
18752;SDS011;9505;50.882;5.350;2023-04-24T12:40:38;18.52;;;4.07;;
18752;SDS011;9505;50.882;5.350;2023-04-24T12:43:13;33.13;;;5.55;;
18752;SDS011;9505;50.882;5.350;2023-04-24T12:45:39;29.90;;;5.20;;
18752;SDS011;9505;50.882;5.350;2023-04-24T12:48:04;54.40;;;7.20;;
18752;SDS011;9505;50.882;5.350;2023-04-24T12:50:30;52.38;;;6.82;;
18752;SDS011;9505;50.882;5.350;2023-04-24T12:52:56;17.63;;;4.05;;
18752;SDS011;9505;50.882;5.350;2023-04-24T12:55:21;28.17;;;5.18;;
18752;SDS011;9505;50.882;5.350;2023-04-24T12:57:47;59.05;;;7.95;;
18752;SDS011;9505;50.882;5.350;2023-04-24T13:00:13;62.88;;;8.52;;
18752;SDS011;9505;50.882;5.350;2023-04-24T13:02:39;33.50;;;5.32;;
18752;SDS011;9505;50.882;5.350;2023-04-24T13:05:05;24.90;;;4.03;;
18752;SDS011;9505;50.882;5.350;2023-04-24T13:07:31;51.15;;;7.20;;
18752;SDS011;9505;50.882;5.350;2023-04-24T13:09:57;62.92;;;8.38;;
18752;SDS011;9505;50.882;5.350;2023-04-24T13:12:22;51.05;;;6.88;;
18752;SDS011;9505;50.882;5.350;2023-04-24T13:14:51;26.40;;;4.60;;
18752;SDS011;9505;50.882;5.350;2023-04-24T13:17:17;35.13;;;5.30;;
18752;SDS011;9505;50.882;5.350;2023-04-24T13:19:43;62.63;;;7.90;;
18752;SDS011;9505;50.882;5.350;2023-04-24T13:22:10;49.80;;;6.82;;
18752;SDS011;9505;50.882;5.350;2023-04-24T13:24:37;26.20;;;4.53;;
18752;SDS011;9505;50.882;5.350;2023-04-24T13:27:04;19.73;;;4.05;;
18752;SDS011;9505;50.882;5.350;2023-04-24T13:29:30;54.13;;;7.10;;
18752;SDS011;9505;50.882;5.350;2023-04-24T13:31:56;43.95;;;6.38;;
18752;SDS011;9505;50.882;5.350;2023-04-24T13:34:22;53.72;;;7.07;;
18752;SDS011;9505;50.882;5.350;2023-04-24T13:36:50;21.80;;;4.65;;
18752;SDS011;9505;50.882;5.350;2023-04-24T13:39:17;19.60;;;3.72;;
18752;SDS011;9505;50.882;5.350;2023-04-24T13:41:42;73.57;;;8.98;;
18752;SDS011;9505;50.882;5.350;2023-04-24T13:44:08;45.88;;;6.80;;
18752;SDS011;9505;50.882;5.350;2023-04-24T13:46:34;22.17;;;4.22;;
18752;SDS011;9505;50.882;5.350;2023-04-24T13:49:01;22.73;;;3.83;;
18752;SDS011;9505;50.882;5.350;2023-04-24T13:51:28;37.15;;;5.72;;
18752;SDS011;9505;50.882;5.350;2023-04-24T13:53:54;48.40;;;7.15;;
18752;SDS011;9505;50.882;5.350;2023-04-24T13:56:20;68.38;;;8.52;;
18752;SDS011;9505;50.882;5.350;2023-04-24T13:58:47;21.83;;;4.18;;
18752;SDS011;9505;50.882;5.350;2023-04-24T14:01:13;26.05;;;4.35;;
18752;SDS011;9505;50.882;5.350;2023-04-24T14:03:39;50.53;;;7.03;;
18752;SDS011;9505;50.882;5.350;2023-04-24T14:06:05;55.65;;;7.70;;
18752;SDS011;9505;50.882;5.350;2023-04-24T14:08:31;47.65;;;6.75;;
18752;SDS011;9505;50.882;5.350;2023-04-24T14:10:57;34.42;;;5.43;;
18752;SDS011;9505;50.882;5.350;2023-04-24T14:13:23;34.28;;;5.63;;
18752;SDS011;9505;50.882;5.350;2023-04-24T14:15:49;53.67;;;7.68;;
18752;SDS011;9505;50.882;5.350;2023-04-24T14:18:15;76.57;;;9.80;;
18752;SDS011;9505;50.882;5.350;2023-04-24T14:20:40;42.97;;;6.18;;
18752;SDS011;9505;50.882;5.350;2023-04-24T14:23:06;43.15;;;5.88;;
18752;SDS011;9505;50.882;5.350;2023-04-24T14:25:32;61.33;;;8.52;;
18752;SDS011;9505;50.882;5.350;2023-04-24T14:27:58;57.97;;;8.10;;
18752;SDS011;9505;50.882;5.350;2023-04-24T14:30:23;47.67;;;7.15;;
18752;SDS011;9505;50.882;5.350;2023-04-24T14:32:49;24.08;;;4.25;;
18752;SDS011;9505;50.882;5.350;2023-04-24T14:35:15;42.47;;;6.18;;
18752;SDS011;9505;50.882;5.350;2023-04-24T14:37:40;39.38;;;5.90;;
18752;SDS011;9505;50.882;5.350;2023-04-24T14:40:07;60.60;;;8.13;;
18752;SDS011;9505;50.882;5.350;2023-04-24T14:42:34;28.33;;;4.30;;
18752;SDS011;9505;50.882;5.350;2023-04-24T14:45:00;22.55;;;4.13;;
18752;SDS011;9505;50.882;5.350;2023-04-24T14:47:26;47.13;;;6.40;;
18752;SDS011;9505;50.882;5.350;2023-04-24T14:49:53;59.83;;;7.35;;
18752;SDS011;9505;50.882;5.350;2023-04-24T14:52:18;52.20;;;7.32;;
18752;SDS011;9505;50.882;5.350;2023-04-24T14:54:45;21.23;;;4.18;;